ADDS METAR Data INFO
IDs: Format: Raw Decoded Include TAF

Data at: 0753 UTC 17 Oct 2017

KMRC 170735Z AUTO 00000KT 10SM CLR 05/05 A3029 RMK A01
KMRC 170715Z AUTO 00000KT 10SM CLR 06/05 A3029 RMK A01
KMRC 170655Z AUTO 00000KT 10SM CLR 06/05 A3029 RMK A01
KMRC 170635Z AUTO 00000KT 10SM CLR 06/06 A3028 RMK A01
KMRC 170615Z AUTO 00000KT 10SM CLR 06/05 A3029 RMK A01
KMRC 170555Z AUTO 00000KT 10SM CLR 06/06 A3028 RMK A01
KMRC 170535Z AUTO 00000KT 10SM CLR 07/06 A3029 RMK A01
KMRC 170515Z AUTO 00000KT 10SM CLR 07/05 A3029 RMK A01
KMRC 170455Z AUTO 00000KT 10SM CLR 07/06 A3029 RMK A01
KMRC 170435Z AUTO 00000KT 10SM CLR 08/06 A3029 RMK A01
KMRC 170415Z AUTO 00000KT 10SM CLR 08/06 A3029 RMK A01
KMRC 170355Z AUTO 00000KT 10SM CLR 08/06 A3029 RMK A01
KMRC 170335Z AUTO 00000KT 10SM CLR 09/06 A3029 RMK A01
KMRC 170315Z AUTO 00000KT 10SM CLR 08/06 A3029 RMK A01
KMRC 170255Z AUTO 00000KT 10SM CLR 09/06 A3028 RMK A01
KMRC 170235Z AUTO 06003KT 10SM CLR 09/06 A3028 RMK A01
KMRC 170215Z AUTO 00000KT 10SM CLR 11/06 A3027 RMK A01
KMRC 170155Z AUTO 00000KT 10SM CLR 11/06 A3027 RMK A01
KMRC 170135Z AUTO 00000KT 10SM CLR 11/06 A3027 RMK A01
KMRC 170115Z AUTO 04004KT 10SM CLR 12/06 A3027 RMK A01
KMRC 170055Z AUTO 00000KT 10SM CLR 13/06 A3027 RMK A01
KMRC 170035Z AUTO 00000KT 10SM CLR 13/06 A3026 RMK A01
KMRC 170015Z AUTO 00000KT 10SM CLR 14/05 A3026 RMK A01
KMRC 162355Z AUTO VRB04KT 10SM CLR 14/05 A3026 RMK A01
KMRC 162335Z AUTO 36005KT 10SM CLR 15/05 A3026 RMK A01
KMRC 162315Z AUTO 36005KT 10SM CLR 15/05 A3025 RMK A01
KMRC 162255Z AUTO 36006KT 10SM CLR 16/05 A3024 RMK A01
KMRC 162235Z AUTO 35008KT 10SM CLR 17/05 A3024 RMK A01
KMRC 162215Z AUTO 36008KT 310V020 10SM CLR 17/04 A3024 RMK A01
KMRC 162155Z AUTO 03009KT 10SM CLR 18/04 A3023 RMK A01
KMRC 162135Z AUTO VRB06G12KT 10SM CLR 18/05 A3023 RMK A01
KMRC 162115Z AUTO 35007KT 10SM CLR 18/05 A3023 RMK A01
KMRC 162055Z AUTO 03008G14KT 10SM CLR 18/04 A3023 RMK A01
KMRC 162035Z AUTO VRB06G14KT 10SM CLR 18/04 A3023 RMK A01
KMRC 162015Z AUTO 03007KT 10SM CLR 19/05 A3024 RMK A01
KMRC 161955Z AUTO 01009KT 10SM CLR 18/05 A3024 RMK A01
KMRC 161935Z AUTO 36010KT 320V030 10SM CLR 18/04 A3024 RMK A01
KMRC 161915Z AUTO 36010G17KT 10SM CLR 18/04 A3025 RMK A01
KMRC 161855Z AUTO 03010KT 350V050 10SM CLR 18/05 A3026 RMK A01
KMRC 161835Z AUTO 03008G13KT 10SM CLR 17/05 A3027 RMK A01
KMRC 161815Z AUTO 02009KT 340V050 10SM CLR 17/05 A3027 RMK A01
KMRC 161755Z AUTO 02010KT 10SM CLR 17/05 A3028 RMK A01
KMRC 161735Z AUTO 02008KT 10SM CLR 17/05 A3029 RMK A01
KMRC 161715Z AUTO 02007G15KT 350V050 10SM FEW040 16/05 A3030 RMK A01
KMRC 161655Z AUTO 05013KT 10SM CLR 16/06 A3030 RMK A01
KMRC 161635Z AUTO 02011KT 10SM CLR 15/05 A3031 RMK A01
KMRC 161615Z AUTO 36008G16KT 330V030 10SM FEW035 15/05 A3031 RMK A01
KMRC 161555Z AUTO 01012KT 10SM BKN034 15/06 A3031 RMK A01
KMRC 161535Z AUTO 04008G14KT 360V060 10SM SCT030 SCT036 14/06 A3031 RMK A01
KMRC 161515Z AUTO 03011G17KT 340V050 10SM SCT028 BKN033 14/07 A3031 RMK A01
KMRC 161455Z AUTO 03009KT 10SM SCT028 13/07 A3031 RMK A01
KMRC 161435Z AUTO 01008G13KT 10SM CLR 12/07 A3030 RMK A01
KMRC 161415Z AUTO 02007G15KT 340V040 10SM CLR 12/07 A3030 RMK A01
KMRC 161355Z AUTO 01009KT 10SM CLR 11/07 A3030 RMK A01
KMRC 161335Z AUTO 01005KT 10SM FEW038 10/07 A3030 RMK A01
KMRC 161315Z AUTO VRB06KT 10SM CLR 09/07 A3029 RMK A01
KMRC 161255Z AUTO 35004KT 10SM CLR 09/07 A3029 RMK A01
KMRC 161235Z AUTO 35003KT 10SM CLR 08/07 A3028 RMK A01
KMRC 161215Z AUTO 00000KT 10SM CLR 08/07 A3027 RMK A01
KMRC 161155Z AUTO 33004KT 10SM CLR 08/07 A3027 RMK A01
KMRC 161135Z AUTO 33004KT 10SM CLR 08/07 A3026 RMK A01
KMRC 161115Z AUTO 34003KT 10SM CLR 09/06 A3026 RMK A01
KMRC 161055Z AUTO 35004KT 10SM CLR 09/06 A3025 RMK A01
KMRC 161035Z AUTO 36004KT 10SM CLR 09/06 A3024 RMK A01
KMRC 161015Z AUTO 35005KT 10SM SCT030 10/06 A3024 RMK A01
KMRC 160955Z AUTO 36007G12KT 10SM OVC029 11/06 A3023 RMK A01
KMRC 160935Z AUTO 36008G13KT 10SM OVC029 11/06 A3023 RMK A01
KMRC 160915Z AUTO VRB05G11KT 10SM OVC028 10/07 A3023 RMK A01
KMRC 160855Z AUTO VRB05KT 10SM OVC028 10/07 A3022 RMK A01
KMRC 160835Z AUTO 35005KT 10SM OVC027 11/08 A3022 RMK A01
KMRC 160815Z AUTO 36005G11KT 10SM OVC026 11/08 A3022 RMK A01
KMRC 160755Z AUTO 36007KT 10SM OVC025 10/08 A3023 RMK A01
KMRC 160735Z AUTO 35004KT 10SM OVC026 10/08 A3023 RMK A01
KMRC 160715Z AUTO 36003KT 10SM OVC028 10/08 A3023 RMK A01
KMRC 160655Z AUTO 36004KT 10SM OVC028 10/08 A3023 RMK A01
KMRC 160635Z AUTO 00000KT 10SM OVC029 10/09 A3023 RMK A01
KMRC 160615Z AUTO 00000KT 10SM BKN029 10/09 A3023 RMK A01
KMRC 160555Z AUTO 35003KT 10SM SCT030 10/09 A3023 RMK A01
KMRC 160535Z AUTO VRB03KT 10SM FEW032 11/09 A3022 RMK A01
KMRC 160515Z AUTO 36004KT 10SM CLR 11/09 A3023 RMK A01
KMRC 160455Z AUTO VRB04KT 10SM CLR 11/09 A3023 RMK A01
KMRC 160435Z AUTO 36003KT 10SM CLR 11/09 A3023 RMK A01
KMRC 160415Z AUTO 01005KT 10SM CLR 12/09 A3022 RMK A01
KMRC 160355Z AUTO VRB05KT 10SM CLR 12/09 A3022 RMK A01
KMRC 160335Z AUTO 01006KT 10SM CLR 12/09 A3022 RMK A01
KMRC 160315Z AUTO 01006G11KT 10SM FEW024 12/10 A3022 RMK A01
KMRC 160255Z AUTO 01007KT 340V040 10SM FEW022 SCT027 13/10 A3022 RMK A01
KMRC 160235Z AUTO 36006G14KT 10SM SCT020 BKN026 13/10 A3021 RMK A01
KMRC 160215Z AUTO 34007KT 320V030 10SM BKN020 OVC025 14/11 A3020 RMK A01
KMRC 160155Z AUTO 35007KT 10SM OVC020 14/11 A3019 RMK A01
KMRC 160135Z AUTO 36007G16KT 10SM OVC020 14/11 A3018 RMK A01
KMRC 160115Z AUTO 35008G18KT 10SM SCT014 BKN020 OVC075 14/12 A3017 RMK A01
KMRC 160055Z AUTO 36006G12KT 10SM SCT014 BKN019 OVC070 15/13 A3015 RMK A01 P0001
KMRC 160035Z AUTO 36008G13KT 10SM SCT008 OVC015 15/14 A3014 RMK A01
KMRC 160015Z AUTO 01009KT 4SM BR OVC007 16/15 A3012 RMK A01
KMRC 152355Z AUTO 33007G12KT 300V010 9SM BKN008 OVC012 16/15 A3011 RMK A01 P0001
KMRC 152335Z AUTO VRB04KT 6SM BR BKN012 OVC017 17/15 A3009 RMK A01
KMRC 152315Z AUTO VRB06G18KT 6SM BR BKN018 OVC038 17/15 A3009 RMK A01
KMRC 152255Z AUTO 31007G13KT 270V350 10SM SCT019 OVC038 18/14 A3008 RMK A01
KMRC 152235Z AUTO VRB05G13KT 10SM BKN015 OVC036 19/15 A3007 RMK A01
KMRC 152215Z AUTO 33009KT 10SM BKN012 OVC016 19/17 A3006 RMK A01
KMRC 152155Z AUTO 33009G15KT 300V360 10SM BKN015 OVC022 21/17 A3004 RMK A01
KMRC 152135Z AUTO 32014G20KT 10SM FEW016 SCT026 BKN034 22/18 A3003 RMK A01
KMRC 152115Z AUTO VRB05KT 10SM SCT033 BKN050 OVC080 25/21 A3000 RMK A01
KMRC 152055Z AUTO 23008KT 10SM FEW031 FEW038 BKN080 26/21 A3000 RMK A01
KMRC 152035Z AUTO 22007KT 10SM FEW041 BKN080 BKN095 26/21 A3000 RMK A01
KMRC 152015Z AUTO 23006KT 10SM FEW042 BKN080 BKN100 25/21 A3000 RMK A01
KMRC 151955Z AUTO 22005KT 10SM FEW100 25/22 A3000 RMK A01